Wekiva Springs, Florida
Current Conditions -  °F | °C
As of 4:53 AM on Thursday 29 Jan 2015 (Local Time) from KORL Reporting Station
Clear Clear  
Wind Chill: 42°   Ceiling: Unl
Heat Index: 45°   Visibility: 10mi
Dew Point: 37°   Wind: 6mph
Humidity: 74%   Direction: 330°NNW
Pressure: 30.26"   Gusts: NA
Location:  28.7°N, 81.42°W
Report Text: KORL 290953Z AUTO 33005KT 10SM CLR 07/03 A3026 RMK AO2 SLP252 T00720028
Loading
Personal Weather Stations






























Interactive Weather Map New forecast layout! Learn more

10-Day Weather Forecast

Advertisements
Track Severe Weather on mobile